Orbital elements of SAKURA-2B
| Launched | 4 August 1983 |
| Flight ended | – |
| Launch site | Tanegashima Space Center, Japan |
| Owner | Japan |
| NORAD ID | 14248 |
| Alternative names |
CS-2B |
| Date fetched |
Epoch osculation |
Inc. [°] |
Ecc. | RA asc node [hr] |
Arg Peri. [°] |
Mean anom [°] |
Mean motion [rev/day] |
Abs. mag |
| Date fetched |
Epoch osculation |
Inc. [°] |
Ecc. | RA asc node [hr] |
Arg Peri. [°] |
Mean anom [°] |
Mean motion [rev/day] |
Abs. mag |
| 2026 May 08 17:57 | 2026 May 05 11:14:11 | 11.1564 | 0.00044 | 21.6510 | 46.0471 | 332.2809 | 0.98813 | – |
| 2026 May 07 17:58 | 2026 May 05 11:14:11 | 11.1564 | 0.00044 | 21.6510 | 46.0471 | 332.2809 | 0.98813 | – |
| 2026 May 06 17:57 | 2026 May 05 11:14:11 | 11.1564 | 0.00044 | 21.6510 | 46.0471 | 332.2809 | 0.98813 | – |
| 2026 May 05 17:57 | 2026 May 05 11:14:11 | 11.1564 | 0.00044 | 21.6510 | 46.0471 | 332.2809 | 0.98813 | – |
| 2026 May 04 17:57 | 2026 Apr 30 08:09:29 | 11.1641 | 0.00045 | 21.6530 | 44.8379 | 332.2809 | 0.98813 | – |
| 2026 May 03 17:57 | 2026 Apr 30 08:09:29 | 11.1641 | 0.00045 | 21.6530 | 44.8379 | 332.2809 | 0.98813 | – |
| 2026 May 02 17:57 | 2026 Apr 30 08:09:29 | 11.1641 | 0.00045 | 21.6530 | 44.8379 | 332.2809 | 0.98813 | – |
| 2026 May 01 17:56 | 2026 Apr 30 08:09:29 | 11.1641 | 0.00045 | 21.6530 | 44.8379 | 332.2809 | 0.98813 | – |
| 2026 Apr 30 17:56 | 2026 Apr 30 08:09:29 | 11.1641 | 0.00045 | 21.6530 | 44.8379 | 332.2809 | 0.98813 | – |
| 2026 Apr 29 17:57 | 2026 Apr 24 06:51:17 | 11.1730 | 0.00046 | 21.6555 | 43.7275 | 332.2809 | 0.98813 | – |
| 2026 Apr 28 17:56 | 2026 Apr 24 06:51:17 | 11.1730 | 0.00046 | 21.6555 | 43.7275 | 332.2809 | 0.98813 | – |
| 2026 Apr 27 17:58 | 2026 Apr 24 06:51:17 | 11.1730 | 0.00046 | 21.6555 | 43.7275 | 332.2809 | 0.98813 | – |
| 2026 Apr 26 17:58 | 2026 Apr 24 06:51:17 | 11.1730 | 0.00046 | 21.6555 | 43.7275 | 332.2809 | 0.98813 | – |
| 2026 Apr 25 17:58 | 2026 Apr 24 06:51:17 | 11.1730 | 0.00046 | 21.6555 | 43.7275 | 332.2809 | 0.98813 | – |
| 2026 Apr 24 17:59 | 2026 Apr 24 06:51:17 | 11.1730 | 0.00046 | 21.6555 | 43.7275 | 332.2809 | 0.98813 | – |
| 2026 Apr 23 17:57 | 2026 Apr 19 05:29:01 | 11.1802 | 0.00047 | 21.6576 | 41.3435 | 332.2809 | 0.98813 | – |
| 2026 Apr 22 17:57 | 2026 Apr 19 05:29:01 | 11.1802 | 0.00047 | 21.6576 | 41.3435 | 332.2809 | 0.98813 | – |
| 2026 Apr 21 17:57 | 2026 Apr 19 05:29:01 | 11.1802 | 0.00047 | 21.6576 | 41.3435 | 332.2809 | 0.98813 | – |
| 2026 Apr 20 17:57 | 2026 Apr 19 05:29:01 | 11.1802 | 0.00047 | 21.6576 | 41.3435 | 332.2809 | 0.98813 | – |
| 2026 Apr 19 17:58 | 2026 Apr 19 05:29:01 | 11.1802 | 0.00047 | 21.6576 | 41.3435 | 332.2809 | 0.98813 | – |
| 2026 Apr 18 17:56 | 2026 Apr 12 16:12:48 | 11.1899 | 0.00048 | 21.6603 | 37.5198 | 332.2809 | 0.98813 | – |
| 2026 Apr 16 17:57 | 2026 Apr 12 16:12:48 | 11.1899 | 0.00048 | 21.6603 | 37.5198 | 332.2809 | 0.98813 | – |
| 2026 Apr 14 17:57 | 2026 Apr 12 16:12:48 | 11.1899 | 0.00048 | 21.6603 | 37.5198 | 332.2809 | 0.98813 | – |
| 2026 Apr 13 17:57 | 2026 Apr 12 16:12:48 | 11.1899 | 0.00048 | 21.6603 | 37.5198 | 332.2809 | 0.98813 | – |
| 2026 Apr 12 17:57 | 2026 Apr 08 01:05:51 | 11.1967 | 0.00048 | 21.6622 | 35.4012 | 332.2809 | 0.98813 | – |
| 2026 Apr 11 17:57 | 2026 Apr 08 01:05:51 | 11.1967 | 0.00048 | 21.6622 | 35.4012 | 332.2809 | 0.98813 | – |